Marshall Don Hunter Sr Airport Marshall US
ICAO: PADM
IATA:
Category: Medium
Scheduled Services:

Elevation: 103 ft
TransAlt. 18000 ft.

Airport Communications:
ANCHORAGE CNTR:132.3
CTAF:122.9
ST MARYS RDO:124

PADM Zoom In..

Runways:

(A) RW 07 length 3200 ft width 100 ft
---- / hdg 70

(B) RW 25 length 3200 ft width 100 ft
---- / hdg 250

Location; PADM
Day. 10 / Time. 07.02 Zulu
* Altimeter: 30.30
* Temperature: 01° c. 33.8°f.
* Wind from: 190° Speed 15 kn with Gusts up to 21 kn.
Dewpoint: -01° c.
Visibility: 9 Statute Miles.
Clouds: Overcast 700 ft.
Conditions: Light Snow.

PADM 100702Z AUTO 19015G21KT 9SM -SN OVC007 01/M01 A3030 RMK AO2 SLP265 P0000 T00061006 FZRANO


Wind From 190°
Speed 15 kn.

 
 
jpsmedia worldairports.se 2020   terms of use